KGLH

Mid Delta Regional Airport

Airport
ICAO code
KGLH
Summary
ICAO Region
NAM
ICAO Territory
Location

Greenville, Mississippi,

Elevation
131 ft
Coordinates
33° 28' 58" N , 90° 59' 8" W
KCC
Airport LOS
Parallel Runway Operation
Metar
Observation
KGLH 070753Z AUTO 00000KT 10SM CLR 14/09 A3013 RMK AO2 SLP206 T01440089
Station
Greenville, Mid Delta Regional Airport
Date/Time
2022-10-07 07:53:00
Wind direction
Wind speed
00 kts
Lowest cloud amount
n/a
Temperature
14.4°C
Dew point
8.9°C
Humidity
69%
Weather condition
n/a

Description

Mid-Delta Regional Airport, formerly Greenville Air Force Base, is a public use airport located 9 km northeast of the central business district of Greenville, a city in Washington County, Mississippi.

Climatology

Humid “subtropical” climate (Köppen climate classification Cfa) - characterized by hot, humid summers and cool winters. Significant amounts of precipitation occur in all seasons in most areas. Winter rainfall (and sometimes snowfall) is associated with large storms that the westerlies steer from west to east. Most summer rainfall occurs during thunderstorms and occasional tropical storms (hurricanes).

Airport map

Aerial View

SKYbrary Partners:

Safety knowledge contributed by: